Time;durP1;ratioP1;P1;durP2;ratioP2;P2;SDS_P1;SDS_P2;PMS_P1;PMS_P2;Temp;Humidity;BMP_temperature;BMP_pressure;BME280_temperature;BME280_humidity;BME280_pressure;Samples;Min_cycle;Max_cycle;Signal;HPM_P1;HPM_P2
2021/01/14 00:01:43;;;;;;;0.70;0.50;;;-3.00;96.30;;;;;;5016867;28;20221;-79
2021/01/14 00:04:09;;;;;;;0.70;0.47;;;-3.00;96.30;;;;;;5001785;28;20181;-80
2021/01/14 00:06:34;;;;;;;0.70;0.40;;;-2.90;96.30;;;;;;5016131;28;20551;-80
2021/01/14 00:09:00;;;;;;;0.70;0.50;;;-2.90;96.30;;;;;;5014884;28;20571;-79
2021/01/14 00:11:25;;;;;;;0.70;0.50;;;-2.90;96.30;;;;;;5005431;28;20195;-80
2021/01/14 00:13:51;;;;;;;0.73;0.50;;;-2.90;96.30;;;;;;4995309;28;20184;-80
2021/01/14 00:16:16;;;;;;;0.70;0.40;;;-2.90;96.30;;;;;;4994682;28;20177;-80
2021/01/14 00:18:42;;;;;;;0.80;0.60;;;-2.80;96.30;;;;;;4997554;28;20177;-80
2021/01/14 00:21:07;;;;;;;0.70;0.50;;;-2.80;96.30;;;;;;5005736;28;20677;-80
2021/01/14 00:23:33;;;;;;;0.70;0.50;;;-2.80;96.30;;;;;;5014531;28;20242;-80
2021/01/14 00:25:58;;;;;;;0.70;0.40;;;-2.80;96.30;;;;;;5011567;28;20212;-80
2021/01/14 00:28:24;;;;;;;0.70;0.40;;;-2.80;96.30;;;;;;4995288;28;20194;-80
2021/01/14 00:30:49;;;;;;;0.70;0.40;;;-2.80;96.30;;;;;;4999379;28;20193;-80
2021/01/14 00:33:15;;;;;;;0.70;0.40;;;-2.80;96.30;;;;;;4998314;28;20664;-80
2021/01/14 00:35:40;;;;;;;0.70;0.50;;;-2.90;96.30;;;;;;4995947;28;20178;-79
2021/01/14 00:38:06;;;;;;;0.70;0.40;;;-3.00;96.30;;;;;;4995621;28;20178;-79
2021/01/14 00:40:34;;;;;;;1.57;1.43;;;-3.10;96.30;;;;;;4998607;28;20666;-80
2021/01/14 00:43:02;;;;;;;0.80;0.60;;;-3.20;96.30;;;;;;4996101;28;20425;-80
2021/01/14 00:45:29;;;;;;;0.83;0.50;;;-3.20;96.30;;;;;;5012780;28;20451;-79
2021/01/14 00:47:55;;;;;;;0.70;0.50;;;-3.30;96.30;;;;;;5016193;28;20939;-80
2021/01/14 00:50:21;;;;;;;0.80;0.50;;;-3.30;96.30;;;;;;5016243;28;20424;-80
2021/01/14 00:52:47;;;;;;;0.70;0.43;;;-3.30;96.30;;;;;;5016253;28;20412;-80
2021/01/14 00:55:17;;;;;;;0.80;0.50;;;-3.30;96.30;;;;;;5014593;28;21025;-80
2021/01/14 00:57:43;;;;;;;0.70;0.40;;;-3.30;96.30;;;;;;5015833;28;20168;-79
2021/01/14 05:00:59;;;;;;;0.70;0.43;;;-2.80;96.30;;;;;;5724758;23;20492;-81
2021/01/14 05:03:28;;;;;;;0.80;0.70;;;-2.80;96.30;;;;;;4992325;28;20461;-82
2021/01/14 05:05:55;;;;;;;0.90;0.60;;;-2.80;96.30;;;;;;4974129;28;20422;-81
2021/01/14 05:08:27;;;;;;;0.70;0.40;;;-2.80;96.30;;;;;;4999751;28;20825;-82
2021/01/14 05:10:54;;;;;;;0.70;0.50;;;-2.80;96.30;;;;;;4999528;28;20487;-81
2021/01/14 05:13:20;;;;;;;0.70;0.40;;;-2.80;96.30;;;;;;4967707;28;20448;-81
2021/01/14 05:15:46;;;;;;;0.70;0.40;;;-2.80;96.30;;;;;;4997407;23;20493;-79
2021/01/14 05:18:11;;;;;;;0.70;0.40;;;-2.70;96.30;;;;;;4951143;29;20475;-79
2021/01/14 05:20:37;;;;;;;0.70;0.40;;;-2.70;96.30;;;;;;4965656;28;20302;-79
2021/01/14 05:23:04;;;;;;;0.70;0.40;;;-2.70;96.30;;;;;;4954355;29;20187;-80
2021/01/14 05:25:31;;;;;;;0.70;0.40;;;-2.60;96.30;;;;;;4953408;28;20195;-79
2021/01/14 05:28:13;;;;;;;4.53;1.40;;;-2.60;96.30;;;;;;4952879;29;20785;-80
2021/01/14 05:30:39;;;;;;;0.80;0.50;;;-2.50;96.30;;;;;;4954188;28;20403;-79
2021/01/14 05:33:31;;;;;;;0.70;0.40;;;-2.50;96.30;;;;;;4954213;28;20409;-79
2021/01/14 05:36:03;;;;;;;0.70;0.50;;;-2.60;96.30;;;;;;4969060;28;20445;-79
2021/01/14 05:38:32;;;;;;;0.70;0.50;;;-2.60;96.30;;;;;;4974281;28;20440;-80
2021/01/14 05:41:19;;;;;;;0.70;0.40;;;-2.60;96.30;;;;;;4974517;28;20890;-81
2021/01/14 05:43:53;;;;;;;0.70;0.40;;;-2.60;96.30;;;;;;4977587;28;20916;-80
2021/01/14 05:46:21;;;;;;;0.70;0.40;;;-2.60;96.30;;;;;;4975487;28;20448;-80
2021/01/14 05:48:47;;;;;;;0.70;0.40;;;-2.60;96.30;;;;;;4993141;28;20496;-80
2021/01/14 05:51:21;;;;;;;2.30;2.10;;;-2.60;96.30;;;;;;4992767;28;20445;-81
2021/01/14 05:54:07;;;;;;;0.80;0.60;;;-2.50;96.30;;;;;;4976358;28;20444;-80
2021/01/14 05:56:40;;;;;;;0.70;0.40;;;-2.60;96.30;;;;;;4995852;28;20506;-80
2021/01/14 05:59:09;;;;;;;1.20;0.53;;;-2.50;96.30;;;;;;4996939;28;20408;-80
2021/01/14 06:01:36;;;;;;;0.70;0.40;;;-2.50;96.30;;;;;;4996608;28;20475;-80
2021/01/14 06:04:13;;;;;;;0.70;0.40;;;-2.50;96.30;;;;;;4997356;28;20772;-80
2021/01/14 06:06:42;;;;;;;0.70;0.50;;;-2.50;96.30;;;;;;4996848;28;20931;-80
2021/01/14 06:09:10;;;;;;;0.70;0.40;;;-2.50;96.30;;;;;;4997548;28;20440;-81
2021/01/14 06:11:36;;;;;;;0.70;0.40;;;-2.40;96.30;;;;;;4980120;28;20413;-80
2021/01/14 06:14:01;;;;;;;0.70;0.40;;;-2.50;96.30;;;;;;4981614;28;20413;-80
2021/01/14 06:16:27;;;;;;;1.03;0.80;;;-2.50;96.30;;;;;;4978726;28;20205;-80
2021/01/14 06:19:06;;;;;;;0.70;0.40;;;-2.50;96.30;;;;;;4996495;28;20595;-81
2021/01/14 06:21:45;;;;;;;0.70;0.50;;;-2.50;96.30;;;;;;4996389;28;20439;-81
2021/01/14 06:24:28;;;;;;;0.70;0.40;;;-2.40;96.30;;;;;;4996124;28;20471;-81
2021/01/14 06:27:04;;;;;;;0.70;0.40;;;-2.50;96.30;;;;;;4978029;28;20571;-81
2021/01/14 06:29:36;;;;;;;0.70;0.40;;;-2.40;96.30;;;;;;4996233;28;20440;-82
2021/01/14 06:32:04;;;;;;;0.70;0.40;;;-2.40;96.30;;;;;;4978477;28;20421;-81
2021/01/14 06:34:32;;;;;;;0.80;0.50;;;-2.40;96.30;;;;;;4996056;28;20424;-81
2021/01/14 06:37:06;;;;;;;0.70;0.40;;;-2.40;96.30;;;;;;4995540;28;20421;-80
2021/01/14 06:39:38;;;;;;;0.70;0.40;;;-2.40;96.30;;;;;;4995891;28;20415;-81
2021/01/14 06:42:27;;;;;;;0.70;0.50;;;-2.40;96.30;;;;;;4978344;28;20456;-80
2021/01/14 06:45:16;;;;;;;0.70;0.40;;;-2.40;96.30;;;;;;4994978;28;20448;-81
2021/01/14 06:47:46;;;;;;;0.97;0.50;;;-2.40;96.30;;;;;;4975772;28;20436;-80
2021/01/14 06:50:14;;;;;;;0.70;0.40;;;-2.40;96.30;;;;;;4958219;28;20464;-80
2021/01/14 06:53:00;;;;;;;0.70;0.47;;;-2.40;96.30;;;;;;4976315;28;20422;-81
2021/01/14 06:55:33;;;;;;;0.70;0.40;;;-2.40;96.30;;;;;;4958492;28;20437;-81
2021/01/14 06:58:09;;;;;;;0.70;0.60;;;-2.40;96.30;;;;;;4975853;28;20453;-80
2021/01/14 07:00:47;;;;;;;0.97;0.60;;;-2.30;96.30;;;;;;4976061;28;20398;-80
2021/01/14 07:03:16;;;;;;;0.70;0.50;;;-2.30;96.30;;;;;;4943549;29;20426;-81
2021/01/14 07:05:53;;;;;;;0.70;0.40;;;-2.40;96.30;;;;;;4939322;29;20442;-81
2021/01/14 07:08:39;;;;;;;0.70;0.40;;;-2.30;96.30;;;;;;4960550;29;20446;-82
2021/01/14 07:11:15;;;;;;;0.83;0.70;;;-2.40;96.30;;;;;;4960629;28;20414;-82
2021/01/14 07:13:46;;;;;;;0.70;0.50;;;-2.50;96.30;;;;;;4961334;28;20413;-82
2021/01/14 07:16:17;;;;;;;0.70;0.40;;;-2.60;96.30;;;;;;4957824;28;20552;-82
2021/01/14 07:18:46;;;;;;;1.10;0.90;;;-2.60;96.30;;;;;;4975526;28;20432;-82
2021/01/14 07:21:23;;;;;;;0.70;0.50;;;-2.60;96.30;;;;;;4975855;28;20909;-81
2021/01/14 07:24:05;;;;;;;0.70;0.50;;;-2.70;96.30;;;;;;4976103;28;20417;-81
2021/01/14 07:26:32;;;;;;;0.70;0.50;;;-2.70;96.30;;;;;;4975052;28;20493;-82
2021/01/14 07:29:01;;;;;;;0.90;0.70;;;-2.70;96.30;;;;;;4975535;28;20452;-81
2021/01/14 07:31:27;;;;;;;0.83;0.80;;;-2.70;96.30;;;;;;4975967;28;20398;-81
2021/01/14 07:33:54;;;;;;;0.70;0.40;;;-2.70;96.30;;;;;;4958656;28;20972;-81
2021/01/14 07:36:26;;;;;;;0.70;0.40;;;-2.70;96.30;;;;;;4957482;28;20434;-81
2021/01/14 07:38:55;;;;;;;0.80;0.50;;;-2.70;96.30;;;;;;4957726;28;20516;-82
2021/01/14 07:41:21;;;;;;;0.70;0.40;;;-2.70;96.30;;;;;;4975381;28;20430;-81
2021/01/14 07:43:48;;;;;;;1.10;1.00;;;-2.70;96.30;;;;;;4975540;28;20501;-81
2021/01/14 07:46:20;;;;;;;0.70;0.40;;;-2.70;96.30;;;;;;4957613;28;20446;-82
2021/01/14 07:48:46;;;;;;;0.70;0.43;;;-2.70;96.30;;;;;;4958166;28;20461;-80
2021/01/14 07:51:12;;;;;;;0.70;0.50;;;-2.70;96.30;;;;;;4958126;28;20414;-81
2021/01/14 07:53:38;;;;;;;0.70;0.50;;;-2.70;96.30;;;;;;4959399;28;20508;-80
2021/01/14 07:56:26;;;;;;;0.70;0.40;;;-2.60;96.30;;;;;;4957175;28;20213;-80
2021/01/14 07:58:58;;;;;;;0.70;0.40;;;-2.60;96.30;;;;;;4957329;28;20210;-80
2021/01/14 08:01:23;;;;;;;0.70;0.50;;;-2.50;96.30;;;;;;4974982;28;20402;-79
2021/01/14 08:03:49;;;;;;;0.70;0.50;;;-2.50;96.30;;;;;;4974610;28;20426;-80
2021/01/14 08:06:16;;;;;;;0.70;0.47;;;-2.40;96.30;;;;;;4982080;28;20562;-79
2021/01/14 08:08:53;;;;;;;0.70;0.50;;;-2.40;96.30;;;;;;4993832;28;20280;-80
2021/01/14 08:11:20;;;;;;;0.70;0.40;;;-2.50;96.30;;;;;;4976747;28;20463;-79
2021/01/14 08:14:03;;;;;;;0.70;0.40;;;-2.40;96.30;;;;;;4975130;28;20418;-80
2021/01/14 08:16:58;;;;;;;0.70;0.40;;;-2.40;96.30;;;;;;4985006;28;20453;-81
2021/01/14 08:19:31;;;;;;;0.70;0.50;;;-2.40;96.30;;;;;;4979270;28;20448;-80
2021/01/14 08:22:03;;;;;;;0.70;0.40;;;-2.40;96.30;;;;;;4984934;28;21270;-80
2021/01/14 08:24:38;;;;;;;0.70;0.50;;;-2.40;96.30;;;;;;4972890;28;20454;-82
2021/01/14 08:27:08;;;;;;;0.70;0.50;;;-2.40;96.30;;;;;;4954294;29;20422;-82
2021/01/14 08:29:41;;;;;;;1.57;0.80;;;-2.40;96.30;;;;;;4953611;29;20465;-81
2021/01/14 08:32:28;;;;;;;0.70;0.40;;;-2.40;96.30;;;;;;4954695;29;20410;-82
2021/01/14 08:34:58;;;;;;;0.70;0.40;;;-2.30;96.30;;;;;;4954279;29;20423;-82
2021/01/14 08:37:31;;;;;;;0.70;0.40;;;-2.30;96.30;;;;;;4953726;29;20411;-82
2021/01/14 08:40:06;;;;;;;0.70;0.40;;;-2.30;96.30;;;;;;4969473;28;20415;-82
2021/01/14 08:42:33;;;;;;;0.70;0.40;;;-2.20;96.30;;;;;;4954655;29;20578;-82
2021/01/14 08:45:21;;;;;;;0.70;0.40;;;-2.20;96.30;;;;;;4954135;29;20470;-81
2021/01/14 08:47:58;;;;;;;0.70;0.50;;;-2.20;96.30;;;;;;4942552;28;20418;-82
2021/01/14 08:50:39;;;;;;;0.70;0.50;;;-2.10;96.30;;;;;;4956234;28;20440;-83
2021/01/14 08:53:11;;;;;;;0.70;0.47;;;-2.10;96.30;;;;;;4955988;28;20444;-82
2021/01/14 08:55:37;;;;;;;0.70;0.50;;;-2.10;96.30;;;;;;4939490;29;20891;-82
2021/01/14 08:58:06;;;;;;;0.70;0.40;;;-2.10;96.30;;;;;;4954089;29;20415;-83
2021/01/14 09:00:32;;;;;;;0.70;0.40;;;-2.10;96.30;;;;;;4965544;28;20444;-84
2021/01/14 09:02:58;;;;;;;0.70;0.47;;;-2.10;96.30;;;;;;4948729;28;20468;-84
2021/01/14 09:05:24;;;;;;;0.70;0.40;;;-2.00;96.30;;;;;;4955418;28;20446;-84
2021/01/14 09:08:07;;;;;;;1.20;1.03;;;-2.00;96.30;;;;;;4973361;28;20429;-84
2021/01/14 09:10:54;;;;;;;0.70;0.50;;;-2.00;96.30;;;;;;4939422;28;20175;-84
2021/01/14 09:13:21;;;;;;;0.70;0.40;;;-2.00;96.30;;;;;;4952186;28;20430;-85
2021/01/14 09:15:48;;;;;;;1.73;0.70;;;-2.00;96.30;;;;;;4954953;28;20540;-84
2021/01/14 09:18:15;;;;;;;0.80;0.50;;;-2.00;96.30;;;;;;4951454;28;20428;-84
2021/01/14 09:20:41;;;;;;;1.53;1.43;;;-2.00;96.30;;;;;;4972804;28;20933;-84
2021/01/14 09:23:19;;;;;;;2.10;0.70;;;-2.00;96.30;;;;;;4956105;28;20418;-84
2021/01/14 09:25:53;;;;;;;0.70;0.50;;;-1.90;96.30;;;;;;4952022;29;20521;-85
2021/01/14 09:28:23;;;;;;;0.70;0.50;;;-1.90;96.30;;;;;;4957565;28;20464;-84
2021/01/14 09:31:16;;;;;;;0.70;0.50;;;-1.90;96.30;;;;;;4968217;28;20437;-84
2021/01/14 09:33:43;;;;;;;0.70;0.40;;;-1.80;96.30;;;;;;4940528;29;20436;-84
2021/01/14 09:36:14;;;;;;;0.80;0.70;;;-1.80;96.30;;;;;;4957370;29;20462;-83
2021/01/14 09:39:16;;;;;;;2.50;1.13;;;-1.80;96.30;;;;;;4940828;29;20422;-83
2021/01/14 09:41:42;;;;;;;1.00;0.80;;;-1.70;96.30;;;;;;4954150;28;20442;-84
2021/01/14 09:44:09;;;;;;;1.33;0.77;;;-1.80;96.30;;;;;;4957912;29;20476;-83
2021/01/14 09:46:40;;;;;;;0.70;0.40;;;-1.80;96.30;;;;;;4955878;29;20210;-83
2021/01/14 09:49:09;;;;;;;0.70;0.40;;;-1.70;96.30;;;;;;4940232;29;20450;-83
2021/01/14 09:51:35;;;;;;;0.70;0.50;;;-1.70;96.30;;;;;;4957599;29;20417;-83
2021/01/14 09:54:03;;;;;;;0.90;0.60;;;-1.70;96.30;;;;;;4940246;29;20418;-83
2021/01/14 09:56:34;;;;;;;0.80;0.60;;;-1.60;96.30;;;;;;4939635;29;20536;-82
2021/01/14 09:59:09;;;;;;;0.80;0.60;;;-1.60;96.30;;;;;;4940393;29;20911;-83
2021/01/14 10:01:49;;;;;;;1.17;1.07;;;-1.60;96.30;;;;;;4940295;29;20409;-83
2021/01/14 10:04:18;;;;;;;0.70;0.40;;;-1.50;96.30;;;;;;4953496;28;20505;-83
2021/01/14 10:06:52;;;;;;;0.70;0.50;;;-1.50;96.30;;;;;;4955362;28;20524;-84
2021/01/14 10:09:18;;;;;;;1.00;0.87;;;-1.50;96.30;;;;;;4967004;28;20988;-83
2021/01/14 10:11:44;;;;;;;0.70;0.40;;;-1.50;96.30;;;;;;4961806;28;20461;-83
2021/01/14 10:14:17;;;;;;;0.70;0.50;;;-1.40;96.30;;;;;;4975621;28;20468;-83
2021/01/14 10:16:43;;;;;;;0.80;0.60;;;-1.40;96.30;;;;;;4966755;28;20535;-84
2021/01/14 10:19:18;;;;;;;0.70;0.50;;;-1.40;96.30;;;;;;4957178;28;20426;-83
2021/01/14 10:21:45;;;;;;;0.80;0.50;;;-1.40;96.30;;;;;;4954925;28;20421;-84
2021/01/14 10:24:25;;;;;;;0.90;0.80;;;-1.30;96.30;;;;;;4958301;28;20440;-84
2021/01/14 10:26:51;;;;;;;0.83;0.60;;;-1.30;96.30;;;;;;4969955;28;20425;-84
2021/01/14 10:29:30;;;;;;;3.73;0.93;;;-1.30;96.30;;;;;;4975245;28;20449;-83
2021/01/14 10:32:03;;;;;;;0.70;0.50;;;-1.30;96.30;;;;;;4954708;29;20185;-83
2021/01/14 10:34:43;;;;;;;0.70;0.50;;;-1.30;96.30;;;;;;4965935;28;20410;-84
2021/01/14 10:37:29;;;;;;;0.70;0.50;;;-1.30;96.30;;;;;;4957482;28;20769;-85
2021/01/14 10:40:14;;;;;;;0.73;0.53;;;-1.40;96.30;;;;;;4954433;28;20421;-85
2021/01/14 10:42:47;;;;;;;1.23;1.13;;;-1.50;96.30;;;;;;4958049;28;20422;-85
2021/01/14 10:45:13;;;;;;;3.43;2.57;;;-1.50;96.30;;;;;;4952412;29;20449;-85
2021/01/14 10:47:40;;;;;;;1.87;1.77;;;-1.50;96.30;;;;;;4948895;28;20422;-84
2021/01/14 10:50:22;;;;;;;0.80;0.50;;;-1.50;96.30;;;;;;4949927;28;20489;-84
2021/01/14 10:52:59;;;;;;;0.80;0.60;;;-1.40;96.30;;;;;;4957300;28;20513;-84
2021/01/14 10:55:26;;;;;;;0.70;0.40;;;-1.40;96.30;;;;;;4957042;28;20445;-85
2021/01/14 10:57:56;;;;;;;1.00;0.80;;;-1.40;96.30;;;;;;4954559;28;20443;-85
2021/01/14 11:00:23;;;;;;;0.80;0.50;;;-1.40;96.30;;;;;;4954457;28;20431;-84
2021/01/14 11:03:10;;;;;;;1.00;0.80;;;-1.40;96.30;;;;;;4954366;28;20424;-84
2021/01/14 11:05:48;;;;;;;0.80;0.70;;;-1.40;96.30;;;;;;4969409;28;20470;-84
2021/01/14 11:08:34;;;;;;;4.60;0.80;;;-1.40;96.30;;;;;;4974558;28;20476;-84
2021/01/14 11:11:08;;;;;;;0.70;0.50;;;-1.30;96.30;;;;;;4950841;28;20422;-85
2021/01/14 11:13:46;;;;;;;0.80;0.70;;;-1.30;96.30;;;;;;4963187;28;20415;-85
2021/01/14 11:16:12;;;;;;;1.27;0.80;;;-1.20;96.30;;;;;;4977746;28;20857;-85
2021/01/14 11:18:40;;;;;;;1.10;0.97;;;-1.10;96.30;;;;;;4953692;28;20414;-83
2021/01/14 11:21:06;;;;;;;1.00;0.90;;;-1.20;96.30;;;;;;4978890;28;20445;-84
2021/01/14 11:23:32;;;;;;;0.80;0.70;;;-1.20;96.30;;;;;;4978050;28;20426;-85
2021/01/14 11:26:01;;;;;;;0.80;0.73;;;-1.20;96.30;;;;;;4955429;28;20469;-85
2021/01/14 11:28:27;;;;;;;1.33;0.70;;;-1.20;96.30;;;;;;4967850;28;20825;-83
2021/01/14 11:30:53;;;;;;;0.90;0.70;;;-1.10;96.30;;;;;;4958432;28;20655;-84
2021/01/14 11:33:18;;;;;;;0.87;0.80;;;-1.00;96.30;;;;;;4957465;28;20172;-84
2021/01/14 11:35:44;;;;;;;1.53;1.43;;;-1.00;96.30;;;;;;4973944;28;20210;-84
2021/01/14 11:38:10;;;;;;;1.97;1.77;;;-0.90;96.30;;;;;;4957018;28;20182;-84
2021/01/14 11:40:35;;;;;;;0.70;0.40;;;-0.90;96.30;;;;;;4970107;28;20434;-85
2021/01/14 11:43:01;;;;;;;1.10;0.87;;;-0.90;96.30;;;;;;4954613;28;20171;-84
2021/01/14 11:45:27;;;;;;;0.70;0.40;;;-1.00;96.30;;;;;;4954869;28;20190;-85
2021/01/14 11:47:52;;;;;;;1.10;0.90;;;-1.10;96.30;;;;;;4958037;28;20178;-84
2021/01/14 11:50:18;;;;;;;6.60;2.47;;;-1.10;96.30;;;;;;4960351;28;20201;-85
2021/01/14 11:52:43;;;;;;;0.80;0.60;;;-1.10;96.30;;;;;;4959082;28;20607;-85
2021/01/14 11:55:10;;;;;;;1.03;0.93;;;-1.00;96.30;;;;;;4953854;28;20229;-84
2021/01/14 11:57:36;;;;;;;0.80;0.53;;;-0.90;96.30;;;;;;4958136;28;20197;-84
2021/01/14 12:00:04;;;;;;;0.70;0.40;;;-0.80;96.30;;;;;;4977609;28;20429;-83
2021/01/14 12:02:30;;;;;;;0.90;0.77;;;-0.80;96.30;;;;;;4969520;28;20449;-84
2021/01/14 12:04:55;;;;;;;0.70;0.40;;;-0.80;96.30;;;;;;4957169;28;20457;-83
2021/01/14 12:07:21;;;;;;;0.80;0.70;;;-1.00;96.30;;;;;;4968804;28;20596;-84
2021/01/14 12:09:46;;;;;;;1.00;0.90;;;-0.90;96.30;;;;;;4965660;28;20190;-84
2021/01/14 12:12:12;;;;;;;0.90;0.80;;;-1.00;96.30;;;;;;4974882;28;20201;-84
2021/01/14 12:14:37;;;;;;;1.00;0.87;;;-0.90;96.30;;;;;;4968672;28;20185;-84
2021/01/14 12:17:02;;;;;;;0.80;0.50;;;-0.80;96.30;;;;;;4978443;28;20191;-83
2021/01/14 12:19:28;;;;;;;1.67;0.80;;;-0.80;96.30;;;;;;4973537;28;20178;-85
2021/01/14 12:22:04;;;;;;;2.43;1.70;;;-0.90;96.30;;;;;;4957622;28;20181;-85
2021/01/14 12:24:31;;;;;;;2.50;1.07;;;-0.90;96.30;;;;;;4958568;28;20257;-84
2021/01/14 12:26:56;;;;;;;0.70;0.40;;;-0.90;96.30;;;;;;4949841;28;20987;-85
2021/01/14 12:29:22;;;;;;;1.00;0.90;;;-0.90;96.30;;;;;;4974463;28;20470;-85
2021/01/14 12:31:48;;;;;;;1.77;1.67;;;-0.90;96.30;;;;;;4957716;28;20220;-83
2021/01/14 12:34:14;;;;;;;1.03;0.50;;;-0.90;96.30;;;;;;4958194;28;20272;-84
2021/01/14 12:36:39;;;;;;;0.93;0.83;;;-0.80;96.30;;;;;;4966291;28;20198;-84
2021/01/14 12:39:05;;;;;;;1.43;0.60;;;-0.80;96.30;;;;;;4952004;28;20227;-84
2021/01/14 12:41:32;;;;;;;0.77;0.57;;;-0.90;96.30;;;;;;4967839;28;20262;-85
2021/01/14 12:43:57;;;;;;;1.00;0.73;;;-1.00;96.30;;;;;;4955685;28;20178;-84
2021/01/14 12:46:38;;;;;;;1.00;0.90;;;-1.10;96.30;;;;;;4972446;28;20524;-85
2021/01/14 12:49:05;;;;;;;0.80;0.50;;;-1.00;96.30;;;;;;4968971;28;20603;-86
2021/01/14 12:51:31;;;;;;;1.03;0.93;;;-1.00;96.30;;;;;;4956603;28;20964;-85
2021/01/14 12:53:57;;;;;;;1.63;1.20;;;-1.00;96.30;;;;;;4953393;28;20426;-85
2021/01/14 12:56:22;;;;;;;1.47;1.37;;;-1.10;96.30;;;;;;4953383;28;20205;-85
2021/01/14 12:58:48;;;;;;;1.10;0.70;;;-1.10;96.30;;;;;;4958641;28;20201;-85
2021/01/14 13:01:13;;;;;;;1.43;0.93;;;-1.10;96.30;;;;;;4955268;28;20212;-85
2021/01/14 13:03:38;;;;;;;1.20;1.07;;;-1.10;96.30;;;;;;4966580;28;20243;-84
2021/01/14 13:06:04;;;;;;;0.80;0.70;;;-1.10;96.30;;;;;;4953815;28;20233;-86
2021/01/14 13:08:30;;;;;;;1.63;0.60;;;-1.00;96.30;;;;;;4951121;28;20581;-85
2021/01/14 13:10:55;;;;;;;1.20;1.00;;;-0.90;96.30;;;;;;4972707;28;20777;-85
2021/01/14 13:13:21;;;;;;;1.20;0.80;;;-0.90;96.30;;;;;;4962981;28;20185;-85
2021/01/14 13:15:50;;;;;;;1.10;0.93;;;-0.90;96.30;;;;;;4948076;28;20276;-85
2021/01/14 13:18:15;;;;;;;0.90;0.70;;;-1.00;96.30;;;;;;4952736;28;20210;-85
2021/01/14 13:20:41;;;;;;;0.80;0.60;;;-1.00;96.30;;;;;;4954703;28;20425;-85
2021/01/14 13:23:06;;;;;;;2.80;1.77;;;-1.00;96.30;;;;;;4967596;28;20174;-85
2021/01/14 13:25:39;;;;;;;0.87;0.73;;;-1.00;96.30;;;;;;4948529;28;20203;-85
2021/01/14 13:28:04;;;;;;;1.00;0.60;;;-1.10;96.30;;;;;;4954530;28;20183;-85
2021/01/14 13:30:30;;;;;;;1.20;0.73;;;-1.10;96.30;;;;;;4970923;28;20524;-85
2021/01/14 13:32:55;;;;;;;0.80;0.60;;;-1.10;96.30;;;;;;4954295;28;20166;-85
2021/01/14 13:35:21;;;;;;;2.53;1.33;;;-1.10;96.30;;;;;;4962229;28;20194;-85
2021/01/14 13:37:46;;;;;;;1.03;0.93;;;-1.10;96.30;;;;;;4954939;28;20166;-85
2021/01/14 13:40:12;;;;;;;1.93;0.93;;;-1.10;96.30;;;;;;4970543;28;20606;-86
2021/01/14 13:42:38;;;;;;;3.23;1.50;;;-1.00;96.30;;;;;;4955554;28;20529;-85
2021/01/14 13:45:04;;;;;;;2.10;1.00;;;-1.00;96.30;;;;;;4961099;28;20581;-86
2021/01/14 13:47:30;;;;;;;2.87;1.13;;;-1.10;96.30;;;;;;4971310;28;20232;-86
2021/01/14 13:49:55;;;;;;;2.40;1.63;;;-1.20;96.30;;;;;;4955107;28;20517;-86
2021/01/14 13:52:20;;;;;;;1.20;0.90;;;-1.10;96.30;;;;;;4954617;28;20173;-85
2021/01/14 13:54:46;;;;;;;1.90;0.90;;;-1.10;96.30;;;;;;4969700;28;20776;-86
2021/01/14 13:57:11;;;;;;;1.30;1.20;;;-1.20;96.30;;;;;;4947227;28;20174;-86
2021/01/14 13:59:37;;;;;;;1.00;0.87;;;-1.10;96.30;;;;;;4952062;28;20300;-86
2021/01/14 14:02:02;;;;;;;1.17;1.07;;;-1.20;96.30;;;;;;4974104;28;20209;-86
2021/01/14 14:04:28;;;;;;;2.40;1.10;;;-1.20;96.30;;;;;;4951780;28;20187;-85
2021/01/14 14:06:53;;;;;;;1.20;0.97;;;-1.20;96.30;;;;;;4965296;28;20268;-85
2021/01/14 14:09:19;;;;;;;1.73;0.63;;;-1.20;96.30;;;;;;4955497;28;20249;-85
2021/01/14 14:11:46;;;;;;;0.80;0.57;;;-1.30;96.30;;;;;;4966599;28;20186;-86
2021/01/14 14:14:16;;;;;;;2.10;1.70;;;-1.30;96.30;;;;;;4955405;28;20632;-85
2021/01/14 14:16:43;;;;;;;0.80;0.63;;;-1.30;96.30;;;;;;4974995;28;20493;-81
2021/01/14 14:19:09;;;;;;;2.40;1.43;;;-1.30;96.30;;;;;;4959143;28;20421;-82
2021/01/14 14:21:35;;;;;;;0.83;0.67;;;-1.30;96.30;;;;;;4960870;28;20418;-80
2021/01/14 14:24:03;;;;;;;3.93;1.37;;;-1.40;96.30;;;;;;4979019;28;20638;-80
2021/01/14 14:26:34;;;;;;;1.90;1.27;;;-1.40;96.30;;;;;;4962737;28;20207;-81
2021/01/14 14:29:01;;;;;;;1.17;1.07;;;-1.40;96.30;;;;;;4992046;28;20511;-80
2021/01/14 14:31:27;;;;;;;0.90;0.80;;;-1.40;96.30;;;;;;4973695;28;20445;-81
2021/01/14 14:33:53;;;;;;;3.50;1.53;;;-1.40;96.30;;;;;;4960939;28;20942;-81
2021/01/14 14:36:21;;;;;;;2.20;0.90;;;-1.40;96.30;;;;;;4977756;28;20504;-81
2021/01/14 14:38:47;;;;;;;1.30;1.20;;;-1.40;96.30;;;;;;4962339;28;20429;-81
2021/01/14 14:41:13;;;;;;;1.53;0.83;;;-1.40;96.30;;;;;;4997130;28;20417;-81
2021/01/14 14:43:40;;;;;;;1.00;0.87;;;-1.40;96.30;;;;;;4982025;28;20467;-81
2021/01/14 14:46:32;;;;;;;2.00;1.53;;;-1.40;96.30;;;;;;4941579;29;20199;-81
2021/01/14 14:48:58;;;;;;;1.53;1.43;;;-1.40;96.30;;;;;;4956171;29;20474;-80
2021/01/14 14:51:25;;;;;;;4.57;1.13;;;-1.30;96.30;;;;;;4973209;28;20441;-81
2021/01/14 14:53:51;;;;;;;0.90;0.80;;;-1.30;96.30;;;;;;4976814;28;20166;-80
2021/01/14 14:56:18;;;;;;;1.40;1.20;;;-1.30;96.30;;;;;;4976799;28;20448;-80
2021/01/14 14:58:45;;;;;;;0.80;0.60;;;-1.30;96.30;;;;;;4979750;28;20422;-81
2021/01/14 15:01:11;;;;;;;1.00;0.80;;;-1.30;96.30;;;;;;4960990;28;20830;-81
2021/01/14 15:03:40;;;;;;;0.93;0.80;;;-1.30;96.30;;;;;;4960737;28;20577;-81
2021/01/14 15:06:08;;;;;;;1.20;0.93;;;-1.30;96.30;;;;;;4960972;28;20471;-81
2021/01/14 15:08:34;;;;;;;4.53;2.90;;;-1.30;96.30;;;;;;4977897;28;20472;-81
2021/01/14 15:11:00;;;;;;;2.13;1.20;;;-1.30;96.30;;;;;;4961799;28;20476;-81
2021/01/14 15:13:25;;;;;;;1.40;0.87;;;-1.30;96.30;;;;;;4977582;28;20902;-80
2021/01/14 15:15:51;;;;;;;1.23;1.00;;;-1.30;96.30;;;;;;4973765;28;20573;-80
2021/01/14 15:18:16;;;;;;;1.40;1.30;;;-1.30;96.30;;;;;;4998125;28;20194;-80
2021/01/14 15:20:43;;;;;;;5.43;1.33;;;-1.30;96.30;;;;;;4997029;28;20572;-80
2021/01/14 15:23:09;;;;;;;1.10;0.90;;;-1.40;96.30;;;;;;4978263;28;20178;-80
2021/01/14 15:25:34;;;;;;;2.83;1.27;;;-1.40;96.30;;;;;;4976789;28;20421;-80
2021/01/14 15:28:00;;;;;;;3.67;1.10;;;-1.40;96.30;;;;;;4976653;28;20179;-80
2021/01/14 15:30:25;;;;;;;0.90;0.80;;;-1.40;96.30;;;;;;4969738;28;20258;-80
2021/01/14 15:32:51;;;;;;;1.03;0.93;;;-1.40;96.30;;;;;;4959160;28;20179;-80
2021/01/14 15:35:18;;;;;;;1.57;1.33;;;-1.40;96.30;;;;;;4976924;28;20194;-80
2021/01/14 15:37:44;;;;;;;1.10;1.00;;;-1.40;96.30;;;;;;4959127;28;20182;-80
2021/01/14 15:40:11;;;;;;;1.63;1.53;;;-1.40;96.30;;;;;;4959668;28;20790;-80
2021/01/14 15:42:37;;;;;;;1.50;0.97;;;-1.40;96.30;;;;;;4946951;29;20437;-80
2021/01/14 15:45:07;;;;;;;1.27;1.10;;;-1.40;96.30;;;;;;4945209;29;20538;-80
2021/01/14 15:47:36;;;;;;;4.50;2.00;;;-1.40;96.30;;;;;;4976920;28;20255;-79
2021/01/14 15:50:04;;;;;;;3.07;2.00;;;-1.40;96.30;;;;;;4994873;28;20463;-80
2021/01/14 15:52:30;;;;;;;1.40;1.10;;;-1.40;96.30;;;;;;4988666;28;20475;-80
2021/01/14 15:54:55;;;;;;;1.10;0.80;;;-1.40;96.30;;;;;;4961250;28;20729;-79
2021/01/14 15:57:21;;;;;;;0.97;0.83;;;-1.50;96.30;;;;;;4956783;29;20167;-79
2021/01/14 15:59:47;;;;;;;4.03;1.50;;;-1.50;96.30;;;;;;4979968;28;20193;-80
2021/01/14 16:02:14;;;;;;;2.70;1.43;;;-1.50;96.30;;;;;;4975405;28;20177;-80
2021/01/14 16:04:41;;;;;;;3.43;0.80;;;-1.50;96.30;;;;;;4984815;28;20614;-80
2021/01/14 16:07:08;;;;;;;2.13;1.27;;;-1.40;96.30;;;;;;4983783;28;20995;-79
2021/01/14 16:09:34;;;;;;;1.30;1.20;;;-1.50;96.30;;;;;;4969323;28;20490;-79
2021/01/14 16:12:00;;;;;;;1.50;1.40;;;-1.50;96.30;;;;;;4957459;28;20432;-81
2021/01/14 16:14:26;;;;;;;2.20;2.00;;;-1.50;96.30;;;;;;4955827;28;20407;-80
2021/01/14 16:16:52;;;;;;;1.70;1.27;;;-1.50;96.30;;;;;;4974180;28;20241;-80
2021/01/14 16:19:20;;;;;;;0.90;0.70;;;-1.50;96.30;;;;;;4953291;29;20474;-80
2021/01/14 16:21:46;;;;;;;2.87;1.43;;;-1.50;96.30;;;;;;4969330;28;20504;-79
2021/01/14 16:24:16;;;;;;;2.67;2.47;;;-1.50;96.30;;;;;;4955450;28;20871;-79
2021/01/14 16:26:43;;;;;;;1.03;0.90;;;-1.50;96.30;;;;;;4970559;28;20441;-80
2021/01/14 16:29:08;;;;;;;3.60;2.10;;;-1.60;96.30;;;;;;4972276;28;20529;-80
2021/01/14 16:31:34;;;;;;;1.30;1.10;;;-1.60;96.30;;;;;;4954250;28;20918;-80
2021/01/14 16:34:00;;;;;;;4.17;1.60;;;-1.70;96.30;;;;;;4974322;28;20232;-79
2021/01/14 16:36:25;;;;;;;0.83;0.67;;;-1.70;96.30;;;;;;4970083;28;20732;-80
2021/01/14 16:38:51;;;;;;;3.10;2.53;;;-1.70;96.30;;;;;;4955993;28;20182;-79
2021/01/14 16:41:27;;;;;;;1.90;1.40;;;-1.70;96.30;;;;;;4973621;28;20240;-79
2021/01/14 16:43:54;;;;;;;3.83;2.10;;;-1.70;96.30;;;;;;4979042;28;20193;-79
2021/01/14 16:46:23;;;;;;;2.00;1.70;;;-1.80;96.30;;;;;;4953637;28;20438;-79
2021/01/14 16:48:50;;;;;;;1.77;1.53;;;-1.80;96.30;;;;;;4967098;28;20461;-79
2021/01/14 16:51:16;;;;;;;1.70;1.43;;;-1.80;96.30;;;;;;4971605;28;20409;-79
2021/01/14 16:53:42;;;;;;;1.33;1.23;;;-1.80;96.30;;;;;;4972749;28;20461;-79
2021/01/14 16:56:08;;;;;;;2.43;2.23;;;-1.90;96.30;;;;;;4970868;28;20244;-79
2021/01/14 16:58:33;;;;;;;1.63;0.87;;;-1.80;96.30;;;;;;4970535;28;20193;-80
2021/01/14 17:00:59;;;;;;;2.70;2.13;;;-1.80;96.30;;;;;;4967915;28;20430;-79